createdAt,value
2022-11-22T00:03:02.435Z,99809.63
2022-11-22T00:06:04.910Z,99809.50
2022-11-22T00:09:07.423Z,99814.28
2022-11-22T00:12:09.903Z,99825.97
2022-11-22T00:15:12.820Z,99812.53
2022-11-22T00:18:15.250Z,99807.56
2022-11-22T00:21:17.693Z,99812.44
2022-11-22T00:24:20.141Z,99839.00
2022-11-22T00:27:22.602Z,99824.63
2022-11-22T00:30:25.015Z,99838.63
2022-11-22T00:33:27.432Z,99831.06
2022-11-22T00:36:29.830Z,99830.81
2022-11-22T00:39:32.579Z,99838.63
2022-11-22T00:42:35.186Z,99833.81
2022-11-22T00:45:37.638Z,99850.00
2022-11-22T00:48:40.170Z,99848.50
2022-11-22T00:51:42.588Z,99847.22
2022-11-22T00:54:50.048Z,99854.19
2022-11-22T00:57:55.599Z,99860.94
2022-11-22T01:00:58.812Z,99851.44
2022-11-22T01:04:01.409Z,99869.31
2022-11-22T01:07:03.975Z,99858.09
2022-11-22T01:10:06.919Z,99861.00
2022-11-22T01:13:10.204Z,99879.41
2022-11-22T01:16:14.000Z,99885.94
2022-11-22T01:19:16.611Z,99877.09
2022-11-22T01:22:19.097Z,99900.28
2022-11-22T01:25:21.628Z,99878.88
2022-11-22T01:28:24.184Z,99892.25
2022-11-22T01:31:26.656Z,99890.66
2022-11-22T01:34:29.070Z,99860.56
2022-11-22T01:37:31.500Z,99874.50
2022-11-22T01:40:33.919Z,99882.81
2022-11-22T01:43:36.346Z,99887.50
2022-11-22T01:46:39.700Z,99874.06
2022-11-22T01:49:51.893Z,99889.72
2022-11-22T01:52:55.627Z,99876.44
2022-11-22T01:56:00.212Z,99897.25
2022-11-22T01:59:07.508Z,99888.34
2022-11-22T02:02:09.963Z,99870.94
2022-11-22T02:05:15.620Z,99891.31
2022-11-22T02:08:24.353Z,99885.34
2022-11-22T02:11:32.635Z,99894.69
2022-11-22T02:14:37.020Z,99893.09
2022-11-22T02:17:39.444Z,99891.31
2022-11-22T02:20:41.936Z,99901.75
2022-11-22T02:23:51.810Z,99901.69
2022-11-22T02:26:54.307Z,99901.69
2022-11-22T02:29:57.548Z,99890.72
2022-11-22T02:33:00.042Z,99908.66
2022-11-22T02:36:02.675Z,99914.13
2022-11-22T02:39:05.861Z,99900.47
2022-11-22T02:42:08.332Z,99905.97
2022-11-22T02:45:11.133Z,99897.97
2022-11-22T02:48:16.481Z,99902.41
2022-11-22T02:51:20.222Z,99880.25
2022-11-22T02:54:22.914Z,99890.13
2022-11-22T02:57:25.364Z,99878.72
2022-11-22T03:00:27.875Z,99894.59
2022-11-22T03:03:31.714Z,99903.66
2022-11-22T03:06:34.201Z,99882.13
2022-11-22T03:09:36.765Z,99892.50
2022-11-22T03:12:39.200Z,99876.66
2022-11-22T03:15:41.635Z,99883.41
2022-11-22T03:18:44.152Z,99871.19
2022-11-22T03:21:46.635Z,99883.63
2022-11-22T03:24:49.051Z,99875.59
2022-11-22T03:27:51.416Z,99872.66
2022-11-22T03:30:53.782Z,99887.72
2022-11-22T03:33:56.716Z,99885.91
2022-11-22T03:36:59.319Z,99872.94
2022-11-22T03:40:01.860Z,99882.28
2022-11-22T03:43:04.465Z,99886.63
2022-11-22T03:46:06.899Z,99868.78
2022-11-22T03:49:10.857Z,99882.47
2022-11-22T03:52:13.359Z,99880.97
2022-11-22T03:55:16.081Z,99876.34
2022-11-22T03:58:18.593Z,99884.97
2022-11-22T04:01:21.117Z,99896.66
2022-11-22T04:04:23.634Z,99900.03
2022-11-22T04:07:26.062Z,99898.75
2022-11-22T04:10:28.512Z,99900.56
2022-11-22T04:13:49.324Z,99884.72
2022-11-22T04:16:51.769Z,99904.97
2022-11-22T04:20:13.134Z,99885.47
2022-11-22T04:23:20.360Z,99884.19
2022-11-22T04:26:22.765Z,99896.66
2022-11-22T04:29:25.503Z,99883.09
2022-11-22T04:32:45.855Z,99888.59
2022-11-22T04:35:48.817Z,99901.88
2022-11-22T04:38:52.274Z,99887.53
2022-11-22T04:42:15.051Z,99902.88
2022-11-22T04:45:17.493Z,99910.16
2022-11-22T04:48:19.977Z,99902.63
2022-11-22T04:51:40.684Z,99901.09
2022-11-22T04:54:43.088Z,99903.47
2022-11-22T04:57:45.464Z,99903.97
2022-11-22T05:00:48.375Z,99910.75
2022-11-22T05:03:50.884Z,99902.19
2022-11-22T05:06:53.368Z,99931.31
2022-11-22T05:09:55.811Z,99921.91
2022-11-22T05:12:58.263Z,99931.66
2022-11-22T05:16:02.312Z,99917.94
2022-11-22T05:19:04.729Z,99899.75
2022-11-22T05:22:08.359Z,99922.13
2022-11-22T05:25:10.948Z,99905.75
2022-11-22T05:28:13.358Z,99915.63
2022-11-22T05:31:18.430Z,99908.59
2022-11-22T05:34:20.894Z,99922.41
2022-11-22T05:37:23.702Z,99906.28
2022-11-22T05:40:26.792Z,99924.69
2022-11-22T05:43:29.384Z,99929.91
2022-11-22T05:46:31.765Z,99926.78
2022-11-22T05:49:34.331Z,99946.03
2022-11-22T05:52:37.123Z,99940.50
2022-11-22T05:55:39.562Z,99950.13
2022-11-22T05:58:42.749Z,99956.63
2022-11-22T06:01:45.258Z,99953.25
2022-11-22T06:04:47.812Z,99931.66
2022-11-22T06:07:50.277Z,99945.50
2022-11-22T06:10:52.796Z,99947.00
2022-11-22T06:13:57.660Z,99953.81
2022-11-22T06:17:00.146Z,99947.00
2022-11-22T06:20:06.152Z,99927.78
2022-11-22T06:23:09.130Z,99936.88
2022-11-22T06:26:13.844Z,99952.47
2022-11-22T06:29:16.325Z,99936.09
2022-11-22T06:32:18.857Z,99938.66
2022-11-22T06:35:21.449Z,99957.16
2022-11-22T06:38:23.975Z,99964.16
2022-11-22T06:41:28.651Z,99957.94
2022-11-22T06:44:31.093Z,99966.00
2022-11-22T06:47:33.809Z,99955.28
2022-11-22T06:50:36.260Z,99962.81
2022-11-22T06:53:47.264Z,99975.00
2022-11-22T06:56:50.820Z,99961.22
2022-11-22T06:59:53.349Z,99960.38
2022-11-22T07:02:55.711Z,99976.50
2022-11-22T07:05:58.355Z,99982.22
2022-11-22T07:09:03.715Z,99971.34
2022-11-22T07:12:06.733Z,99948.97
2022-11-22T07:15:09.810Z,99990.00
2022-11-22T07:18:12.220Z,99992.88
2022-11-22T07:21:23.336Z,99976.50
2022-11-22T07:24:25.867Z,99968.56
2022-11-22T07:27:28.470Z,99951.41
2022-11-22T07:30:30.991Z,99953.94
2022-11-22T07:33:33.611Z,99973.69
2022-11-22T07:36:36.022Z,99967.72
2022-11-22T07:39:39.863Z,99960.44
2022-11-22T07:42:43.056Z,99972.06
2022-11-22T07:45:48.681Z,99974.59
2022-11-22T07:48:51.840Z,99972.75
2022-11-22T07:51:54.381Z,99957.06
2022-11-22T07:54:58.143Z,99963.53
2022-11-22T07:58:02.755Z,99941.66
2022-11-22T08:01:12.992Z,99945.97
2022-11-22T08:04:18.174Z,99947.28
2022-11-22T08:07:23.232Z,99960.00
2022-11-22T08:10:26.742Z,99937.63
2022-11-22T08:13:29.945Z,99940.13
2022-11-22T08:16:33.261Z,99962.22
2022-11-22T08:19:37.956Z,99951.03
2022-11-22T08:22:41.976Z,99967.81
2022-11-22T08:25:49.429Z,99952.31
2022-11-22T08:28:52.344Z,99971.44
2022-11-22T08:31:55.721Z,99959.28
2022-11-22T08:34:58.192Z,99956.66
2022-11-22T08:38:00.762Z,99962.91
2022-11-22T08:41:04.315Z,99965.66
2022-11-22T08:44:06.763Z,99965.72
2022-11-22T08:47:09.205Z,99977.34
2022-11-22T08:50:11.965Z,99966.66
2022-11-22T08:53:15.037Z,99965.22
2022-11-22T08:56:17.728Z,99981.34
2022-11-22T08:59:20.984Z,99946.59
2022-11-22T09:02:23.833Z,99948.19
2022-11-22T09:05:26.607Z,99932.22
2022-11-22T09:08:32.718Z,99953.78
2022-11-22T09:11:38.593Z,99939.66
2022-11-22T09:14:41.063Z,99952.88
2022-11-22T09:17:44.376Z,99944.16
2022-11-22T09:20:46.954Z,99935.41
2022-11-22T09:23:50.672Z,99937.91
2022-11-22T09:26:53.240Z,99922.25
2022-11-22T09:29:56.063Z,99945.31
2022-11-22T09:32:58.848Z,99934.19
2022-11-22T09:36:04.304Z,99939.94
2022-11-22T09:39:07.387Z,99937.13
2022-11-22T09:42:13.134Z,99943.25
2022-11-22T09:45:21.920Z,99940.91
2022-11-22T09:49:10.231Z,99929.19
2022-11-22T09:52:31.219Z,99901.81
2022-11-22T09:55:42.007Z,99928.81
2022-11-22T09:58:56.048Z,99927.41
2022-11-22T10:02:26.780Z,99913.81
2022-11-22T10:05:54.198Z,99901.66
2022-11-22T10:09:22.991Z,99911.50
2022-11-22T10:12:46.835Z,99897.84
2022-11-22T10:15:59.560Z,99894.53
2022-11-22T10:19:34.971Z,99886.44
2022-11-22T10:22:39.394Z,99899.50
2022-11-22T10:25:51.712Z,99884.31
2022-11-22T10:29:18.103Z,99893.78
2022-11-22T10:32:40.048Z,99886.50
2022-11-22T10:35:56.676Z,99901.13
2022-11-22T10:39:19.613Z,99884.66
2022-11-22T10:42:52.541Z,99873.88
2022-11-22T10:46:15.036Z,99864.41
2022-11-22T10:49:41.465Z,99889.34
2022-11-22T10:52:51.333Z,99871.00
2022-11-22T10:55:58.547Z,99872.28
2022-11-22T10:59:05.610Z,99867.16
2022-11-22T11:02:41.290Z,99862.97
2022-11-22T11:06:29.453Z,99870.28
2022-11-22T11:10:12.153Z,99870.00
2022-11-22T11:13:29.666Z,99862.91
2022-11-22T11:16:37.507Z,99828.91
2022-11-22T11:19:42.910Z,99852.13
2022-11-22T11:23:17.079Z,99839.41
2022-11-22T11:26:33.753Z,99842.53
2022-11-22T11:29:42.600Z,99832.44
2022-11-22T11:32:55.866Z,99823.13
2022-11-22T11:36:22.665Z,99854.66
2022-11-22T11:39:40.583Z,99829.72
2022-11-22T11:42:47.717Z,99833.00
2022-11-22T11:45:53.945Z,99844.69
2022-11-22T11:49:11.592Z,99837.69
2022-11-22T11:52:24.038Z,99853.28
2022-11-22T11:55:32.354Z,99844.25
2022-11-22T11:58:36.682Z,99831.06
2022-11-22T12:01:56.608Z,99796.22
2022-11-22T12:05:13.988Z,99825.63
2022-11-22T12:08:32.001Z,99821.22
2022-11-22T12:11:44.047Z,99811.22
2022-11-22T12:15:11.151Z,99785.28
2022-11-22T12:18:37.555Z,99802.91
2022-11-22T12:21:46.084Z,99792.81
2022-11-22T12:25:30.517Z,99769.34
2022-11-22T12:28:22.950Z,99770.22
2022-11-22T12:31:35.674Z,99778.94
2022-11-22T12:35:02.439Z,99760.31
2022-11-22T12:38:12.633Z,99762.81
2022-11-22T12:41:17.224Z,99747.41
2022-11-22T12:44:20.875Z,99770.09
2022-11-22T12:47:27.039Z,99740.72
2022-11-22T12:50:36.996Z,99754.66
2022-11-22T12:53:42.494Z,99757.84
2022-11-22T12:56:56.742Z,99745.91
2022-11-22T13:00:04.409Z,99763.13
2022-11-22T13:03:16.491Z,99741.59
2022-11-22T13:06:23.192Z,99720.09
2022-11-22T13:09:32.819Z,99739.34
2022-11-22T13:12:38.686Z,99704.69
2022-11-22T13:15:41.208Z,99716.94
2022-11-22T13:18:57.024Z,99708.22
2022-11-22T13:22:10.510Z,99688.06
2022-11-22T13:25:32.046Z,99697.97
2022-11-22T13:28:36.886Z,99668.88
2022-11-22T13:32:04.507Z,99677.63
2022-11-22T13:35:12.803Z,99676.56
2022-11-22T13:38:17.488Z,99647.91
2022-11-22T13:41:37.044Z,99632.47
2022-11-22T13:44:52.477Z,99659.41
2022-11-22T13:47:55.028Z,99662.22
2022-11-22T13:50:59.528Z,99641.94
2022-11-22T13:54:33.405Z,99656.00
2022-11-22T13:57:40.226Z,99660.28
2022-11-22T14:00:42.905Z,99625.41
2022-11-22T14:03:45.394Z,99643.25
2022-11-22T14:07:24.858Z,99642.06
2022-11-22T14:10:34.562Z,99661.94
2022-11-22T14:13:52.211Z,99651.00
2022-11-22T14:17:06.616Z,99633.19
2022-11-22T14:21:06.643Z,99635.50
2022-11-22T14:24:08.997Z,99627.16
2022-11-22T14:27:20.611Z,99629.66
2022-11-22T14:30:38.207Z,99622.50
2022-11-22T14:34:19.128Z,99627.63
2022-11-22T14:37:34.892Z,99633.78
2022-11-22T14:40:38.098Z,99616.84
2022-11-22T14:43:41.398Z,99583.28
2022-11-22T14:46:54.761Z,99627.81
2022-11-22T14:49:57.442Z,99605.66
2022-11-22T14:53:07.988Z,99603.97
2022-11-22T14:56:18.916Z,99625.50
2022-11-22T14:59:51.219Z,99615.06
2022-11-22T15:02:59.719Z,99614.00
2022-11-22T15:09:16.793Z,99619.72
2022-11-22T15:09:53.529Z,99600.03
2022-11-22T15:13:15.306Z,99607.06
2022-11-22T15:58:01.231Z,99573.00
2022-11-22T16:01:18.728Z,99598.09
2022-11-22T16:04:27.802Z,99604.84
2022-11-22T16:07:36.451Z,99592.03
2022-11-22T16:10:42.788Z,99596.75
2022-11-22T16:13:45.319Z,99572.09
2022-11-22T16:16:47.911Z,99587.06
2022-11-22T16:19:50.677Z,99610.59
2022-11-22T16:23:26.031Z,99592.31
2022-11-22T16:26:31.652Z,99600.34
2022-11-22T16:29:35.923Z,99611.13
2022-11-22T16:32:38.728Z,99592.47
2022-11-22T16:35:41.132Z,99596.13
2022-11-22T16:38:44.319Z,99606.78
2022-11-22T16:41:47.543Z,99609.09
2022-11-22T16:44:51.008Z,99594.63
2022-11-22T16:48:16.725Z,99616.13
2022-11-22T16:51:28.950Z,99588.31
2022-11-22T16:54:32.638Z,99578.22
2022-11-22T16:57:35.213Z,99598.09
2022-11-22T17:00:37.980Z,99605.53
2022-11-22T17:03:41.834Z,99602.38
2022-11-22T17:06:44.832Z,99616.84
2022-11-22T17:09:47.343Z,99613.13
2022-11-22T17:12:49.903Z,99614.31
2022-11-22T17:15:54.300Z,99616.91
2022-11-22T17:18:58.640Z,99620.00
2022-11-22T17:22:01.117Z,99594.50
2022-11-22T17:25:04.203Z,99600.72
2022-11-22T17:28:06.937Z,99583.06
2022-11-22T17:31:12.904Z,99584.03
2022-11-22T17:34:15.654Z,99587.28
2022-11-22T17:37:18.387Z,99574.66
2022-11-22T17:40:20.997Z,99595.53
2022-11-22T17:43:23.628Z,99587.78
2022-11-22T17:46:26.967Z,99603.09
2022-11-22T17:49:30.335Z,99596.63
2022-11-22T17:52:33.275Z,99585.06
2022-11-22T17:56:02.811Z,99583.16
2022-11-22T17:59:00.591Z,99593.34
2022-11-22T18:02:03.485Z,99594.34
2022-11-22T18:05:09.670Z,99579.22
2022-11-22T18:08:12.343Z,99578.03
2022-11-22T18:11:15.910Z,99585.16
2022-11-22T18:14:18.528Z,99573.88
2022-11-22T18:17:21.344Z,99595.84
2022-11-22T18:20:23.934Z,99580.59
2022-11-22T18:23:31.748Z,99562.34
2022-11-22T18:26:40.041Z,99552.88
2022-11-22T18:29:43.505Z,99554.31
2022-11-22T18:32:46.280Z,99541.69
2022-11-22T18:35:58.707Z,99538.09
2022-11-22T18:39:01.368Z,99540.38
2022-11-22T18:42:17.032Z,99542.56
2022-11-22T18:45:19.900Z,99547.47
2022-11-22T18:48:22.581Z,99515.50
2022-11-22T18:51:25.332Z,99533.00
2022-11-22T18:54:28.055Z,99514.13
2022-11-22T18:57:30.859Z,99491.06
2022-11-22T19:00:33.565Z,99506.41
2022-11-22T19:03:37.420Z,99511.00
2022-11-22T19:06:40.818Z,99516.13
2022-11-22T19:09:43.679Z,99491.50
2022-11-22T19:12:46.137Z,99492.66
2022-11-22T19:15:49.110Z,99483.25
2022-11-22T19:18:52.293Z,99480.88
2022-11-22T19:21:55.217Z,99523.50
2022-11-22T19:25:10.270Z,99508.91
2022-11-22T19:28:12.990Z,99493.50
2022-11-22T19:31:17.895Z,99498.13
2022-11-22T19:34:20.621Z,99505.81
2022-11-22T19:37:25.644Z,99490.84
2022-11-22T19:40:28.373Z,99491.84
2022-11-22T19:43:31.242Z,99489.31
2022-11-22T19:46:34.306Z,99474.00
2022-11-22T19:49:37.264Z,99478.50
2022-11-22T19:52:39.885Z,99469.72
2022-11-22T19:55:45.557Z,99465.94
2022-11-22T19:58:55.300Z,99484.91
2022-11-22T20:01:58.504Z,99473.63
2022-11-22T20:05:01.196Z,99458.97
2022-11-22T20:08:03.994Z,99464.38
2022-11-22T20:11:09.130Z,99477.78
2022-11-22T20:14:11.807Z,99469.94
2022-11-22T20:17:14.489Z,99443.81
2022-11-22T20:20:17.400Z,99459.00
2022-11-22T20:23:20.272Z,99452.06
2022-11-22T20:26:24.036Z,99459.78
2022-11-22T20:29:26.730Z,99453.00
2022-11-22T20:32:29.583Z,99442.47
2022-11-22T20:35:32.263Z,99437.84
2022-11-22T20:38:36.336Z,99438.28
2022-11-22T20:41:39.658Z,99438.16
2022-11-22T20:44:42.234Z,99448.34
2022-11-22T20:47:45.020Z,99458.06
2022-11-22T20:50:52.134Z,99438.00
2022-11-22T20:53:55.313Z,99452.84
2022-11-22T20:56:57.959Z,99451.75
2022-11-22T21:00:00.656Z,99441.25
2022-11-22T21:03:03.280Z,99456.97
2022-11-22T21:06:05.918Z,99452.47
2022-11-22T21:09:08.561Z,99431.47
2022-11-22T21:12:11.103Z,99435.63
2022-11-22T21:15:18.271Z,99455.84
2022-11-22T21:18:25.955Z,99429.31
2022-11-22T21:21:30.461Z,99420.81
2022-11-22T21:24:33.062Z,99441.53
2022-11-22T21:27:35.593Z,99447.22
2022-11-22T21:30:38.021Z,99441.53
2022-11-22T21:33:42.653Z,99434.44
2022-11-22T21:36:45.338Z,99423.94
2022-11-22T21:39:48.870Z,99400.13
2022-11-22T21:42:51.279Z,99397.66
2022-11-22T21:45:54.074Z,99386.88
2022-11-22T21:48:56.819Z,99393.69
2022-11-22T21:51:59.513Z,99379.47
2022-11-22T21:55:02.085Z,99396.47
2022-11-22T21:58:04.630Z,99385.78
2022-11-22T22:01:13.570Z,99381.16
2022-11-22T22:04:16.716Z,99397.81
2022-11-22T22:07:44.765Z,99385.63
2022-11-22T22:10:41.450Z,99380.41
2022-11-22T22:13:43.844Z,99379.94
2022-11-22T22:16:46.295Z,99380.72
2022-11-22T22:19:49.552Z,99370.97
2022-11-22T22:22:52.020Z,99364.00
2022-11-22T22:25:59.370Z,99388.72
2022-11-22T22:29:01.939Z,99360.19
2022-11-22T22:32:10.219Z,99374.22
2022-11-22T22:35:13.030Z,99376.38
2022-11-22T22:38:15.496Z,99389.66
2022-11-22T22:41:19.934Z,99391.34
2022-11-22T22:44:22.336Z,99393.19
2022-11-22T22:47:24.697Z,99400.75
2022-11-22T22:50:27.075Z,99390.13
2022-11-22T22:53:30.400Z,99393.69
2022-11-22T22:56:33.965Z,99406.50
2022-11-22T22:59:36.573Z,99400.91
2022-11-22T23:02:39.077Z,99398.63
2022-11-22T23:05:41.927Z,99394.13
2022-11-22T23:08:46.727Z,99393.81
2022-11-22T23:12:21.526Z,99405.72
2022-11-22T23:15:43.917Z,99394.25
2022-11-22T23:18:46.604Z,99401.66
2022-11-22T23:21:49.628Z,99377.91
2022-11-22T23:24:52.025Z,99367.97
2022-11-22T23:27:54.532Z,99364.09
2022-11-22T23:30:57.917Z,99369.09
2022-11-22T23:34:01.544Z,99383.72
2022-11-22T23:37:03.939Z,99372.63
2022-11-22T23:40:07.021Z,99371.69
2022-11-22T23:43:09.468Z,99352.81
2022-11-22T23:46:16.190Z,99355.00
2022-11-22T23:49:18.783Z,99368.00
2022-11-22T23:52:21.355Z,99349.09
2022-11-22T23:55:23.774Z,99359.59
2022-11-22T23:58:30.133Z,99363.59
